Time;durP1;ratioP1;P1;durP2;ratioP2;P2;SDS_P1;SDS_P2;PMS_P1;PMS_P2;Temp;Humidity;BMP_temperature;BMP_pressure;BME280_temperature;BME280_humidity;BME280_pressure;Samples;Min_cycle;Max_cycle;Signal;HPM_P1;HPM_P2
2023/06/25 00:02:26;;;;;;;9.00;6.60;;;;;;;18.43;100.00;102150.56;5069579;28;20035;-72
2023/06/25 00:05:12;;;;;;;9.00;6.22;;;;;;;18.43;100.00;102137.16;5070723;28;20036;-72
2023/06/25 00:07:58;;;;;;;12.10;6.75;;;;;;;18.45;100.00;102143.31;5042530;28;20039;-71
2023/06/25 00:10:44;;;;;;;10.35;6.45;;;;;;;18.45;100.00;102143.31;5070747;28;20040;-72
2023/06/25 00:13:30;;;;;;;11.30;6.05;;;;;;;18.44;100.00;102135.34;5070487;28;20054;-72
2023/06/25 00:16:16;;;;;;;10.13;6.53;;;;;;;18.44;100.00;102133.56;5055557;28;20113;-72
2023/06/25 00:19:02;;;;;;;10.70;6.40;;;;;;;18.45;100.00;102131.72;5070656;28;20067;-72
2023/06/25 00:21:48;;;;;;;9.57;6.10;;;;;;;18.48;100.00;102128.88;5070940;28;20040;-71
2023/06/25 00:24:34;;;;;;;9.00;6.07;;;;;;;18.50;100.00;102129.63;5069843;28;20040;-72
2023/06/25 00:27:20;;;;;;;11.88;7.03;;;;;;;18.53;100.00;102134.81;5069704;28;20457;-72
2023/06/25 00:30:07;;;;;;;12.00;7.10;;;;;;;18.53;100.00;102133.97;5070162;28;20028;-72
2023/06/25 00:32:54;;;;;;;10.20;6.25;;;;;;;18.53;100.00;102128.59;5070791;28;20108;-73
2023/06/25 00:36:02;;;;;;;10.18;6.93;;;;;;;18.54;100.00;102120.47;5069977;28;20124;-72
2023/06/25 00:38:48;;;;;;;11.15;6.95;;;;;;;18.53;100.00;102121.41;5070659;28;20104;-71
2023/06/25 00:41:34;;;;;;;12.70;7.00;;;;;;;18.51;100.00;102115.28;5070396;28;20139;-72
2023/06/25 00:44:19;;;;;;;10.55;7.13;;;;;;;18.50;100.00;102113.53;5069825;28;20081;-72
2023/06/25 00:47:05;;;;;;;11.88;7.35;;;;;;;18.50;100.00;102101.94;5056822;28;20044;-72
2023/06/25 00:49:51;;;;;;;13.70;8.02;;;;;;;18.47;100.00;102103.00;5069551;28;20087;-73
2023/06/25 00:52:39;;;;;;;11.27;8.40;;;;;;;18.49;100.00;102105.59;5069453;28;20111;-72
2023/06/25 00:55:25;;;;;;;12.85;8.32;;;;;;;18.46;100.00;102098.59;5070320;28;22175;-72
2023/06/25 00:58:11;;;;;;;12.77;8.40;;;;;;;18.46;100.00;102095.91;5070456;28;20119;-72
2023/06/25 01:00:59;;;;;;;13.18;8.15;;;;;;;18.44;100.00;102097.81;5070247;28;20063;-73
2023/06/25 01:03:54;;;;;;;14.23;9.00;;;;;;;18.43;100.00;102090.75;5054765;28;20200;-72
2023/06/25 01:06:47;;;;;;;14.68;9.18;;;;;;;18.39;100.00;102089.19;5041402;28;20031;-73
2023/06/25 01:09:33;;;;;;;15.57;9.07;;;;;;;18.38;100.00;102096.38;5055069;28;20032;-74
2023/06/25 01:12:18;;;;;;;16.25;9.13;;;;;;;18.35;100.00;102087.66;5070582;28;20620;-72
2023/06/25 01:15:05;;;;;;;14.50;9.18;;;;;;;18.32;100.00;102089.53;5072712;28;20199;-72
2023/06/25 01:17:53;;;;;;;14.18;9.00;;;;;;;18.30;100.00;102090.59;5059393;28;20124;-73
2023/06/25 01:20:40;;;;;;;15.95;9.10;;;;;;;18.26;100.00;102084.53;5060385;28;20044;-72
2023/06/25 01:23:28;;;;;;;14.45;8.98;;;;;;;18.25;100.00;102084.66;5074560;28;20048;-74
2023/06/25 01:26:13;;;;;;;16.23;9.13;;;;;;;18.23;100.00;102081.16;5073966;28;20132;-73
2023/06/25 01:28:59;;;;;;;15.52;8.68;;;;;;;18.23;100.00;102079.38;5073766;28;20109;-73
2023/06/25 01:31:45;;;;;;;15.63;10.05;;;;;;;18.22;100.00;102072.28;5073181;28;20390;-73
2023/06/25 01:34:31;;;;;;;17.95;10.07;;;;;;;18.23;100.00;102076.69;5072961;28;20044;-72
2023/06/25 01:37:17;;;;;;;15.70;9.95;;;;;;;18.24;100.00;102065.00;5073292;28;20048;-74
2023/06/25 01:40:06;;;;;;;17.92;9.65;;;;;;;18.23;100.00;102070.44;5074198;28;20028;-73
2023/06/25 01:42:52;;;;;;;15.20;9.00;;;;;;;18.21;100.00;102073.25;5058835;28;20135;-73
2023/06/25 01:45:38;;;;;;;17.95;9.18;;;;;;;18.19;100.00;102059.06;5058265;28;20184;-73
2023/06/25 01:48:25;;;;;;;15.73;9.75;;;;;;;18.17;100.00;102052.94;5058240;28;20040;-72
2023/06/25 01:51:11;;;;;;;13.05;8.68;;;;;;;18.15;100.00;102053.00;5074101;28;20095;-73
2023/06/25 01:53:57;;;;;;;16.85;9.52;;;;;;;18.11;100.00;102048.81;5057512;28;20109;-73
2023/06/25 01:56:43;;;;;;;15.98;8.95;;;;;;;18.07;100.00;102057.13;5074568;28;20043;-73
2023/06/25 01:59:29;;;;;;;14.75;9.10;;;;;;;18.02;100.00;102050.16;5058823;28;20478;-72
2023/06/25 02:02:15;;;;;;;15.48;8.52;;;;;;;18.01;100.00;102044.88;5072929;28;20047;-73
2023/06/25 02:05:00;;;;;;;15.95;9.32;;;;;;;17.98;100.00;102039.72;5073440;28;20066;-72
2023/06/25 02:07:46;;;;;;;15.48;8.88;;;;;;;17.94;100.00;102041.72;5058331;28;20035;-72
2023/06/25 02:10:32;;;;;;;15.95;9.40;;;;;;;17.91;100.00;102031.16;5056190;28;20041;-72
2023/06/25 02:13:18;;;;;;;14.75;9.10;;;;;;;17.87;100.00;102029.63;5072659;28;20065;-72
2023/06/25 02:16:04;;;;;;;14.80;9.40;;;;;;;17.84;100.00;102030.66;5073970;28;20048;-72
2023/06/25 02:18:50;;;;;;;15.30;9.60;;;;;;;17.83;100.00;102030.75;5040769;28;20081;-73
2023/06/25 02:21:36;;;;;;;14.05;9.35;;;;;;;17.81;100.00;102019.25;5071855;28;20908;-73
2023/06/25 02:24:23;;;;;;;15.02;9.02;;;;;;;17.80;100.00;102014.88;5071968;28;20681;-73
2023/06/25 02:27:09;;;;;;;14.52;8.40;;;;;;;17.78;100.00;102007.75;5072994;28;20462;-73
2023/06/25 02:29:54;;;;;;;15.90;9.32;;;;;;;17.80;100.00;102022.91;5072051;28;20044;-73
2023/06/25 02:32:40;;;;;;;16.48;9.32;;;;;;;17.79;100.00;102008.63;5058274;28;20520;-72
2023/06/25 02:35:26;;;;;;;14.23;9.02;;;;;;;17.76;100.00;101996.28;5072220;28;20139;-72
2023/06/25 02:38:12;;;;;;;15.27;9.80;;;;;;;17.74;100.00;101998.19;5072166;28;20152;-72
2023/06/25 02:40:58;;;;;;;14.25;8.85;;;;;;;17.74;100.00;101992.84;5057743;28;21938;-74
2023/06/25 02:43:43;;;;;;;13.88;9.32;;;;;;;17.73;100.00;101999.16;5073281;28;20098;-72
2023/06/25 02:46:29;;;;;;;15.57;10.07;;;;;;;17.73;100.00;102001.81;5071889;28;20143;-72
2023/06/25 02:49:15;;;;;;;15.88;9.52;;;;;;;17.71;100.00;101990.31;5072375;28;21251;-72
2023/06/25 02:52:01;;;;;;;20.23;10.13;;;;;;;17.69;100.00;101991.38;5072785;28;20101;-72
2023/06/25 02:54:47;;;;;;;17.42;9.50;;;;;;;17.66;100.00;102005.81;5071866;28;20119;-73
2023/06/25 02:57:33;;;;;;;16.70;9.73;;;;;;;17.62;100.00;101999.78;5072305;28;20043;-72
2023/06/25 03:00:19;;;;;;;15.77;9.75;;;;;;;17.61;100.00;102000.69;5055668;28;20047;-73
2023/06/25 03:03:05;;;;;;;16.27;9.93;;;;;;;17.60;100.00;101995.44;5071629;28;20039;-73
2023/06/25 03:05:52;;;;;;;16.55;9.27;;;;;;;17.57;100.00;102001.84;5072642;28;20036;-73
2023/06/25 03:08:38;;;;;;;13.27;9.25;;;;;;;17.56;100.00;101999.25;5057476;28;20032;-74
2023/06/25 03:11:23;;;;;;;15.85;9.18;;;;;;;17.51;100.00;101999.50;5071393;28;20040;-72
2023/06/25 03:14:09;;;;;;;15.55;9.43;;;;;;;17.50;100.00;101992.44;5071572;28;20032;-73
2023/06/25 03:16:55;;;;;;;16.23;9.38;;;;;;;17.47;100.00;101997.94;5071775;28;20070;-73
2023/06/25 03:19:41;;;;;;;17.67;9.63;;;;;;;17.46;100.00;101990.88;5072359;28;20123;-73
2023/06/25 03:22:29;;;;;;;14.30;9.02;;;;;;;17.46;100.00;101998.91;5071188;28;20497;-73
2023/06/25 03:25:15;;;;;;;16.95;9.20;;;;;;;17.44;100.00;101987.41;5053523;28;20040;-73
2023/06/25 03:28:01;;;;;;;16.90;9.30;;;;;;;17.42;100.00;101987.50;5071911;28;20032;-73
2023/06/25 03:30:47;;;;;;;17.15;9.48;;;;;;;17.41;100.00;101985.78;5045016;28;20177;-72
2023/06/25 03:33:33;;;;;;;16.30;8.75;;;;;;;17.39;100.00;101985.00;5070958;28;20043;-73
2023/06/25 03:36:19;;;;;;;15.60;9.10;;;;;;;17.39;100.00;101987.69;5071384;28;21960;-73
2023/06/25 03:39:05;;;;;;;16.73;9.75;;;;;;;17.37;100.00;101984.22;5055920;28;20043;-73
2023/06/25 03:41:51;;;;;;;15.30;9.23;;;;;;;17.36;100.00;101983.38;5070965;28;20552;-72
2023/06/25 03:44:37;;;;;;;15.85;9.27;;;;;;;17.39;100.00;101985.00;5071206;28;20048;-72
2023/06/25 03:47:23;;;;;;;13.45;9.07;;;;;;;17.40;100.00;101978.72;5070890;28;20686;-73
2023/06/25 03:50:09;;;;;;;16.75;9.55;;;;;;;17.43;100.00;101975.00;5055564;28;20155;-73
2023/06/25 03:52:55;;;;;;;15.73;9.32;;;;;;;17.47;100.00;101974.72;5070985;28;20738;-73
2023/06/25 03:55:41;;;;;;;16.23;9.15;;;;;;;17.50;100.00;101977.22;5070523;28;20036;-73
2023/06/25 03:58:26;;;;;;;15.10;9.30;;;;;;;17.53;100.00;101980.69;5070958;28;20041;-73
2023/06/25 04:01:12;;;;;;;14.63;8.93;;;;;;;17.55;100.00;101976.09;5070628;28;20497;-73
2023/06/25 04:03:58;;;;;;;14.55;9.18;;;;;;;17.57;100.00;101982.22;5055778;28;20032;-73
2023/06/25 04:06:44;;;;;;;15.23;9.27;;;;;;;17.57;100.00;101976.88;5070406;28;20079;-72
2023/06/25 04:09:30;;;;;;;14.93;9.40;;;;;;;17.57;100.00;101967.03;5071081;28;20042;-72
2023/06/25 04:12:15;;;;;;;16.75;9.45;;;;;;;17.60;100.00;101979.38;5069921;28;20114;-73
2023/06/25 04:15:01;;;;;;;13.85;9.32;;;;;;;17.62;100.00;101977.47;5070035;28;20566;-72
2023/06/25 04:17:48;;;;;;;17.20;9.57;;;;;;;17.62;100.00;101983.72;5070557;28;20489;-73
2023/06/25 04:20:33;;;;;;;14.48;9.20;;;;;;;17.66;100.00;101973.69;5071022;28;20072;-73
2023/06/25 04:23:19;;;;;;;16.85;9.32;;;;;;;17.67;100.00;101970.03;5070390;28;20066;-73
2023/06/25 04:26:05;;;;;;;15.70;9.32;;;;;;;17.69;100.00;101962.78;5070931;28;20046;-72
2023/06/25 04:28:51;;;;;;;17.08;9.48;;;;;;;17.71;100.00;101960.88;5070967;28;20519;-73
2023/06/25 04:31:38;;;;;;;15.07;9.35;;;;;;;17.73;100.00;101958.97;5069505;28;20097;-73
2023/06/25 04:34:24;;;;;;;15.68;8.85;;;;;;;17.78;100.00;101961.38;5069661;28;20600;-72
2023/06/25 04:37:13;;;;;;;13.73;8.30;;;;;;;17.78;100.00;101956.88;5070364;28;20175;-73
2023/06/25 04:40:00;;;;;;;15.55;9.10;;;;;;;17.81;100.00;101960.34;5070840;28;20043;-72
2023/06/25 04:42:46;;;;;;;14.93;9.27;;;;;;;17.83;100.00;101955.75;5053024;28;20036;-73
2023/06/25 04:45:31;;;;;;;19.08;9.68;;;;;;;17.87;100.00;101957.31;5069802;28;20511;-71
2023/06/25 04:48:17;;;;;;;15.57;9.20;;;;;;;17.90;100.00;101957.13;5070125;28;20091;-72
2023/06/25 04:51:03;;;;;;;14.23;9.23;;;;;;;17.95;100.00;101963.06;5069621;28;20027;-72
2023/06/25 04:53:51;;;;;;;18.45;10.43;;;;;;;17.99;100.00;101964.63;5048589;28;20040;-72
2023/06/25 04:56:38;;;;;;;15.80;9.35;;;;;;;18.03;100.00;101960.78;5055221;28;20043;-72
2023/06/25 04:59:23;;;;;;;17.08;9.90;;;;;;;18.06;100.00;101962.47;5069480;28;20039;-72
2023/06/25 05:02:09;;;;;;;16.60;9.75;;;;;;;18.12;100.00;101963.91;5069566;28;20036;-74
2023/06/25 05:04:55;;;;;;;14.50;9.25;;;;;;;18.16;100.00;101955.59;5069780;28;20042;-72
2023/06/25 05:07:40;;;;;;;14.68;9.90;;;;;;;18.24;100.00;101956.97;5069479;28;22232;-72
2023/06/25 05:10:26;;;;;;;19.73;9.55;;;;;;;18.31;100.00;101963.66;5070243;28;20031;-72
2023/06/25 05:13:12;;;;;;;15.27;9.70;;;;;;;18.38;100.00;101964.16;5069653;28;20051;-74
2023/06/25 05:15:58;;;;;;;15.63;9.10;;;;;;;18.45;100.00;101968.19;5055047;28;20036;-74
2023/06/25 05:18:44;;;;;;;14.15;8.68;;;;;;;18.50;100.00;101958.03;5070505;28;20114;-73
2023/06/25 05:21:30;;;;;;;13.30;8.70;;;;;;;18.59;100.00;101952.09;5070974;28;20469;-73
2023/06/25 05:24:16;;;;;;;14.18;8.82;;;;;;;18.68;100.00;101957.88;5070276;28;20803;-72
2023/06/25 05:27:02;;;;;;;14.75;8.18;;;;;;;18.77;100.00;101959.09;5069785;28;20116;-73
2023/06/25 05:29:48;;;;;;;12.52;8.82;;;;;;;18.85;100.00;101952.28;5069440;28;20040;-73
2023/06/25 05:32:34;;;;;;;14.85;8.48;;;;;;;18.94;100.00;101953.53;5053849;28;20038;-73
2023/06/25 05:35:19;;;;;;;13.18;8.38;;;;;;;19.06;100.00;101953.75;5069379;28;20211;-74
2023/06/25 05:38:05;;;;;;;13.05;8.30;;;;;;;19.18;100.00;101952.94;5069134;28;20044;-74
2023/06/25 05:40:51;;;;;;;13.32;8.23;;;;;;;19.30;100.00;101951.28;5070015;28;20478;-74
2023/06/25 05:43:37;;;;;;;13.38;7.57;;;;;;;19.43;100.00;101950.50;5069085;28;20406;-74
2023/06/25 05:46:23;;;;;;;14.60;8.70;;;;;;;19.60;100.00;101944.84;5069459;28;20071;-74
2023/06/25 05:49:11;;;;;;;15.27;7.93;;;;;;;19.77;100.00;101942.88;5069371;28;20044;-74
2023/06/25 05:52:00;;;;;;;11.95;7.85;;;;;;;19.97;100.00;101944.22;5069817;28;20038;-74
2023/06/25 05:54:45;;;;;;;13.18;7.50;;;;;;;20.16;100.00;101940.28;5040839;28;20119;-74
2023/06/25 05:57:31;;;;;;;12.38;7.57;;;;;;;20.33;100.00;101939.09;5068789;28;20040;-74
2023/06/25 06:00:17;;;;;;;11.70;7.03;;;;;;;20.50;100.00;101940.59;5068582;28;20024;-72
2023/06/25 06:03:03;;;;;;;12.57;7.22;;;;;;;20.70;100.00;101939.19;5074321;28;20115;-72
2023/06/25 06:05:49;;;;;;;10.07;6.10;;;;;;;20.93;100.00;101936.72;5073166;28;20032;-73
2023/06/25 06:08:35;;;;;;;10.13;6.63;;;;;;;21.13;100.00;101931.72;5074124;28;20044;-73
2023/06/25 06:11:22;;;;;;;13.48;7.13;;;;;;;21.32;100.00;101931.19;5072632;28;20039;-73
2023/06/25 06:14:08;;;;;;;9.80;6.80;;;;;;;21.49;100.00;101938.00;5044538;28;20028;-73
2023/06/25 06:16:53;;;;;;;10.63;6.72;;;;;;;21.67;100.00;101940.28;5072286;28;20055;-74
2023/06/25 06:19:39;;;;;;;12.50;7.28;;;;;;;21.87;100.00;101940.63;5072229;28;20053;-73
2023/06/25 06:22:25;;;;;;;9.48;6.65;;;;;;;22.01;100.00;101934.19;5072035;28;20074;-74
2023/06/25 06:25:11;;;;;;;10.43;6.95;;;;;;;22.18;100.00;101938.28;5072905;28;20402;-74
2023/06/25 06:27:59;;;;;;;13.60;7.80;;;;;;;22.39;100.00;101933.88;5058339;28;20059;-74
2023/06/25 06:30:45;;;;;;;12.30;7.15;;;;;;;22.54;100.00;101922.03;5058443;28;20121;-74
2023/06/25 06:33:34;;;;;;;9.93;6.90;;;;;;;22.67;100.00;101911.09;5073025;28;20613;-74
2023/06/25 06:36:20;;;;;;;12.20;7.43;;;;;;;22.79;100.00;101916.34;5071231;28;20040;-73
2023/06/25 06:39:06;;;;;;;12.75;7.38;;;;;;;22.97;100.00;101923.06;5071588;28;20056;-73
2023/06/25 06:41:52;;;;;;;10.65;7.28;;;;;;;23.13;100.00;101914.59;5073114;28;20127;-74
2023/06/25 06:44:37;;;;;;;11.65;7.35;;;;;;;23.29;100.00;101912.34;5057651;28;20047;-74
2023/06/25 06:47:23;;;;;;;8.98;6.68;;;;;;;23.40;100.00;101911.47;5057514;28;20604;-73
2023/06/25 06:50:09;;;;;;;10.40;7.72;;;;;;;23.59;99.11;101908.06;5071308;28;20483;-73
2023/06/25 06:52:56;;;;;;;10.88;7.68;;;;;;;23.74;96.90;101916.72;5072189;28;20415;-73
2023/06/25 06:55:42;;;;;;;11.25;8.10;;;;;;;23.78;96.74;101911.03;5071296;28;20036;-72
2023/06/25 06:58:28;;;;;;;10.38;8.13;;;;;;;23.91;96.35;101909.00;5070887;28;20031;-72
2023/06/25 07:01:14;;;;;;;11.90;7.82;;;;;;;24.00;96.09;101908.22;5070968;28;20086;-72
2023/06/25 07:04:00;;;;;;;13.07;8.38;;;;;;;24.14;95.18;101900.78;5071399;28;20040;-73
2023/06/25 07:06:46;;;;;;;18.58;8.75;;;;;;;24.28;95.76;101905.84;5072488;28;21091;-72
2023/06/25 07:09:32;;;;;;;13.40;8.48;;;;;;;24.46;94.75;101909.78;5057437;28;20035;-74
2023/06/25 07:12:18;;;;;;;12.93;8.68;;;;;;;24.59;93.53;101904.97;5070385;28;20562;-73
2023/06/25 07:15:05;;;;;;;11.52;9.15;;;;;;;24.73;92.71;101905.59;5071261;28;20036;-73
2023/06/25 07:17:51;;;;;;;11.45;8.80;;;;;;;24.79;92.15;101903.19;5057252;28;20110;-72
2023/06/25 07:20:36;;;;;;;12.32;8.73;;;;;;;24.93;92.33;101910.09;5053057;28;20499;-73
2023/06/25 07:23:22;;;;;;;11.05;8.50;;;;;;;25.09;92.09;101895.16;5055300;28;20043;-73
2023/06/25 07:26:08;;;;;;;11.68;8.65;;;;;;;25.26;91.64;101896.31;5056237;28;20071;-74
2023/06/25 07:28:57;;;;;;;12.18;8.90;;;;;;;25.34;89.70;101895.59;5071357;28;20078;-74
2023/06/25 07:31:43;;;;;;;11.90;9.00;;;;;;;25.49;90.33;101901.47;5070740;28;20042;-72
2023/06/25 07:34:32;;;;;;;11.50;8.25;;;;;;;25.65;89.36;101895.47;5071641;28;20041;-72
2023/06/25 07:37:18;;;;;;;11.43;8.88;;;;;;;25.77;89.26;101888.91;5070173;28;20039;-72
2023/06/25 07:40:05;;;;;;;11.60;8.55;;;;;;;25.84;88.49;101891.91;5070923;28;20062;-73
2023/06/25 07:42:51;;;;;;;13.07;9.20;;;;;;;26.01;88.84;101889.41;5070584;28;20040;-73
2023/06/25 07:45:38;;;;;;;12.23;9.13;;;;;;;26.22;87.71;101885.69;5070009;28;20036;-73
2023/06/25 07:48:24;;;;;;;12.40;9.18;;;;;;;26.46;87.32;101878.88;5070583;28;20127;-73
2023/06/25 07:51:10;;;;;;;12.38;8.45;;;;;;;26.63;85.33;101880.78;5071358;28;20165;-73
2023/06/25 07:53:56;;;;;;;10.00;8.18;;;;;;;26.78;83.89;101880.25;5071142;28;20028;-74
2023/06/25 07:56:43;;;;;;;11.18;8.70;;;;;;;26.89;83.85;101877.34;5055442;28;20036;-73
2023/06/25 07:59:30;;;;;;;11.90;8.55;;;;;;;26.95;82.39;101876.75;5056401;28;20100;-73
2023/06/25 08:02:15;;;;;;;9.70;7.97;;;;;;;26.97;82.06;101871.19;5071854;28;20794;-72
2023/06/25 08:05:01;;;;;;;11.70;7.82;;;;;;;27.06;79.90;101869.41;5070315;28;20104;-72
2023/06/25 08:07:47;;;;;;;10.98;7.15;;;;;;;27.10;79.51;101874.38;5070075;28;20066;-74
2023/06/25 08:10:33;;;;;;;10.25;7.60;;;;;;;27.30;79.55;101866.06;5072165;28;20155;-74
2023/06/25 08:13:20;;;;;;;8.88;7.32;;;;;;;27.54;79.92;101864.53;5055231;28;20042;-73
2023/06/25 08:16:06;;;;;;;8.15;7.05;;;;;;;27.66;76.51;101857.00;5055367;28;20036;-73
2023/06/25 08:18:52;;;;;;;8.55;6.85;;;;;;;27.77;77.57;101859.47;5055926;28;20544;-73
2023/06/25 08:21:38;;;;;;;8.93;6.47;;;;;;;27.81;77.08;101854.56;5055970;28;20032;-75
2023/06/25 08:24:24;;;;;;;7.28;6.13;;;;;;;27.93;76.07;101846.97;5069211;28;20494;-72
2023/06/25 08:27:10;;;;;;;7.43;6.05;;;;;;;28.05;76.11;101855.75;5070975;28;20573;-74
2023/06/25 08:29:55;;;;;;;7.97;6.45;;;;;;;28.22;75.60;101851.28;5070797;28;20790;-74
2023/06/25 08:32:44;;;;;;;6.55;5.82;;;;;;;28.40;74.54;101850.31;5053602;28;20103;-74
2023/06/25 08:35:30;;;;;;;7.05;5.40;;;;;;;28.52;72.13;101845.41;5070432;28;20089;-73
2023/06/25 08:38:21;;;;;;;7.00;5.10;;;;;;;28.56;71.10;101844.94;5071295;28;22060;-73
2023/06/25 08:41:06;;;;;;;7.57;4.78;;;;;;;28.71;71.85;101844.28;5070493;28;20036;-73
2023/06/25 08:43:53;;;;;;;5.47;4.68;;;;;;;28.83;71.60;101831.19;5069922;28;20044;-74
2023/06/25 08:46:43;;;;;;;8.18;4.90;;;;;;;28.91;69.81;101824.97;5069499;28;20652;-74
2023/06/25 08:49:30;;;;;;;6.20;4.40;;;;;;;28.98;69.13;101823.25;5056071;28;20505;-73
2023/06/25 08:52:18;;;;;;;5.47;4.63;;;;;;;28.98;69.17;101810.47;5069987;28;20024;-73
2023/06/25 08:55:08;;;;;;;6.32;4.85;;;;;;;29.10;69.34;101816.47;5054598;28;20048;-73
2023/06/25 08:57:54;;;;;;;4.50;3.40;;;;;;;29.24;68.35;101817.63;5042356;28;20444;-73
2023/06/25 09:00:40;;;;;;;4.90;3.95;;;;;;;29.31;66.28;101806.91;5069940;28;20567;-74
2023/06/25 09:03:27;;;;;;;5.75;4.03;;;;;;;29.38;65.64;101804.34;5070281;28;20044;-73
2023/06/25 09:06:15;;;;;;;5.07;3.92;;;;;;;29.31;63.91;101801.47;5054839;28;20551;-73
2023/06/25 09:09:02;;;;;;;5.10;3.92;;;;;;;29.33;65.42;101799.41;5069172;28;20040;-73
2023/06/25 09:11:48;;;;;;;5.75;4.20;;;;;;;29.51;65.66;101801.09;5069177;28;20032;-73
2023/06/25 09:14:34;;;;;;;5.80;3.53;;;;;;;29.63;62.88;101799.72;5055074;28;20794;-73
2023/06/25 09:17:23;;;;;;;3.95;3.47;;;;;;;29.73;62.95;101794.06;5053744;28;20036;-73
2023/06/25 09:20:09;;;;;;;4.05;3.13;;;;;;;29.81;61.79;101798.66;5069964;28;20043;-73
2023/06/25 09:23:04;;;;;;;3.60;3.25;;;;;;;29.91;60.88;101793.84;5069280;28;20036;-73
2023/06/25 09:25:50;;;;;;;4.40;3.05;;;;;;;29.92;58.49;101795.56;5055757;28;20050;-73
2023/06/25 09:28:49;;;;;;;3.30;2.90;;;;;;;30.03;57.21;101788.00;5041776;28;20032;-74
2023/06/25 09:31:35;;;;;;;3.70;3.40;;;;;;;30.21;57.74;101788.66;5052369;28;20127;-73
2023/06/25 09:34:22;;;;;;;4.22;3.20;;;;;;;30.30;56.39;101785.88;5069897;28;20455;-73
2023/06/25 09:37:08;;;;;;;3.58;3.22;;;;;;;30.29;54.25;101792.38;5050016;28;20046;-73
2023/06/25 09:39:57;;;;;;;3.92;3.00;;;;;;;30.21;54.95;101785.91;5053763;28;20029;-73
2023/06/25 09:42:44;;;;;;;5.22;3.65;;;;;;;30.19;54.31;101787.13;5051618;28;20506;-73
2023/06/25 09:45:30;;;;;;;7.35;3.20;;;;;;;30.17;54.33;101779.09;5052539;28;20040;-74
2023/06/25 09:48:21;;;;;;;4.18;3.20;;;;;;;30.21;53.63;101788.66;5048537;28;20048;-74
2023/06/25 09:51:08;;;;;;;4.00;3.25;;;;;;;30.31;52.71;101785.69;5050131;28;20115;-73
2023/06/25 09:53:55;;;;;;;3.60;3.08;;;;;;;30.40;52.18;101772.00;5054584;28;20410;-74
2023/06/25 09:56:43;;;;;;;4.72;3.45;;;;;;;30.41;51.23;101779.16;5052277;28;20032;-73
2023/06/25 09:59:29;;;;;;;4.30;3.35;;;;;;;30.38;52.26;101780.34;5050723;28;20075;-74
2023/06/25 10:02:15;;;;;;;3.28;2.97;;;;;;;30.39;49.84;101776.59;5054338;28;20066;-73
2023/06/25 10:05:01;;;;;;;3.95;3.00;;;;;;;30.33;50.70;101777.31;5052269;28;20040;-73
2023/06/25 10:07:47;;;;;;;3.10;2.80;;;;;;;30.28;51.55;101779.75;5052974;28;20123;-74
2023/06/25 10:10:33;;;;;;;5.13;3.28;;;;;;;30.40;51.02;101772.84;5050458;28;20386;-74
2023/06/25 10:13:18;;;;;;;4.45;3.55;;;;;;;30.39;50.49;101770.31;5053062;28;20124;-74
2023/06/25 10:16:04;;;;;;;4.53;3.33;;;;;;;30.30;51.59;101772.22;5053394;28;20206;-74
2023/06/25 10:18:53;;;;;;;5.05;3.50;;;;;;;30.32;50.79;101764.69;5052580;28;20143;-74
2023/06/25 10:21:39;;;;;;;3.60;2.80;;;;;;;30.29;51.79;101759.59;5070548;28;20124;-72
2023/06/25 10:24:25;;;;;;;4.18;3.47;;;;;;;30.34;52.06;101757.19;5050505;28;20037;-74
2023/06/25 10:27:20;;;;;;;4.60;3.50;;;;;;;30.30;48.79;101750.38;5053360;28;20032;-73
2023/06/25 10:30:16;;;;;;;4.10;3.15;;;;;;;30.26;50.62;101744.44;5052288;28;20028;-73
2023/06/25 10:33:02;;;;;;;5.68;3.17;;;;;;;30.37;51.62;101751.34;5049601;28;20040;-74
2023/06/25 10:35:53;;;;;;;4.60;3.15;;;;;;;30.52;50.27;101750.56;5051248;28;20056;-75
2023/06/25 10:38:40;;;;;;;3.53;2.80;;;;;;;30.53;50.82;101744.94;5051743;28;20035;-74
2023/06/25 10:41:30;;;;;;;3.50;2.90;;;;;;;30.57;49.77;101734.50;5052360;28;20408;-72
2023/06/25 10:44:16;;;;;;;5.53;3.08;;;;;;;30.60;50.18;101737.72;5052170;28;20718;-74
2023/06/25 10:47:07;;;;;;;3.15;2.75;;;;;;;30.59;47.28;101732.44;5051619;28;20059;-74
2023/06/25 10:49:52;;;;;;;4.20;3.08;;;;;;;30.63;48.26;101728.31;5050951;28;20153;-74
2023/06/25 10:52:39;;;;;;;3.30;2.40;;;;;;;30.68;48.13;101725.06;5052428;28;20040;-74
2023/06/25 10:55:25;;;;;;;3.40;2.45;;;;;;;30.63;46.50;101717.38;5053767;28;20044;-74
2023/06/25 10:58:16;;;;;;;3.75;2.85;;;;;;;30.61;46.67;101714.00;5051908;28;20036;-73
2023/06/25 11:01:01;;;;;;;2.90;2.60;;;;;;;30.71;45.82;101725.53;5049215;28;20130;-74
2023/06/25 11:03:47;;;;;;;3.38;2.85;;;;;;;30.60;45.94;101715.00;5050904;28;20032;-74
2023/06/25 11:06:37;;;;;;;3.22;2.60;;;;;;;30.53;45.65;101712.16;5051192;28;20133;-74
2023/06/25 11:09:23;;;;;;;3.97;2.40;;;;;;;30.57;45.51;101712.66;5069592;28;20036;-73
2023/06/25 11:12:09;;;;;;;4.30;3.05;;;;;;;30.59;45.22;101718.78;5052679;28;20052;-74
2023/06/25 11:14:54;;;;;;;3.97;2.78;;;;;;;30.62;44.94;101710.22;5050699;28;20040;-73
2023/06/25 11:17:40;;;;;;;4.72;2.95;;;;;;;30.76;44.76;101711.31;5051299;28;20075;-73
2023/06/25 11:20:27;;;;;;;3.40;2.70;;;;;;;30.81;44.26;101706.16;5052012;28;20506;-74
2023/06/25 11:23:15;;;;;;;4.28;2.58;;;;;;;30.96;43.29;101716.28;5051740;28;20036;-74
2023/06/25 11:26:02;;;;;;;6.93;2.97;;;;;;;30.95;43.44;101709.97;5050542;28;20032;-73
2023/06/25 11:28:49;;;;;;;4.55;2.80;;;;;;;30.97;42.56;101699.69;5052270;28;20069;-73
2023/06/25 11:31:48;;;;;;;3.65;2.70;;;;;;;30.89;40.73;101700.63;5031928;28;20048;-73
2023/06/25 11:34:35;;;;;;;2.88;2.35;;;;;;;30.92;42.21;101696.66;5050895;28;20065;-75
2023/06/25 11:37:22;;;;;;;3.80;2.53;;;;;;;30.99;41.51;101692.16;5035618;28;20481;-73
2023/06/25 11:40:19;;;;;;;3.00;2.47;;;;;;;30.88;41.46;101698.94;5052475;28;20033;-74
2023/06/25 11:43:04;;;;;;;4.35;2.97;;;;;;;30.95;39.96;101695.44;5051156;28;20072;-74
2023/06/25 11:45:50;;;;;;;3.53;2.60;;;;;;;30.97;40.98;101691.50;5034005;28;20094;-73
2023/06/25 11:48:36;;;;;;;5.65;2.60;;;;;;;31.09;41.01;101688.31;5051955;28;20037;-74
2023/06/25 11:51:22;;;;;;;3.17;2.47;;;;;;;31.14;39.72;101688.59;5050611;28;20145;-74
2023/06/25 11:54:08;;;;;;;3.67;2.80;;;;;;;31.19;39.03;101683.41;5051607;28;20032;-73
2023/06/25 11:56:54;;;;;;;4.97;3.15;;;;;;;31.17;39.59;101680.03;5049566;28;20067;-73
2023/06/25 11:59:42;;;;;;;3.10;2.65;;;;;;;31.17;39.11;101677.31;5047501;28;20037;-74
2023/06/25 12:02:27;;;;;;;4.57;2.88;;;;;;;31.17;38.40;101664.47;5051201;28;20048;-74
2023/06/25 12:05:13;;;;;;;3.53;2.80;;;;;;;31.23;38.71;101667.50;5048156;28;21951;-73
2023/06/25 12:07:59;;;;;;;4.70;2.58;;;;;;;31.34;38.52;101667.06;5050636;28;20044;-73
2023/06/25 12:10:45;;;;;;;3.92;3.08;;;;;;;31.42;38.46;101677.03;5040365;28;20048;-74
2023/06/25 12:13:31;;;;;;;4.50;2.85;;;;;;;31.49;38.60;101672.53;5051760;28;20512;-74
2023/06/25 12:16:16;;;;;;;3.25;2.42;;;;;;;31.44;38.42;101670.34;5050551;28;20660;-73
2023/06/25 12:19:03;;;;;;;4.45;3.20;;;;;;;31.47;39.22;101663.66;5049878;28;20040;-74
2023/06/25 12:21:49;;;;;;;4.10;2.75;;;;;;;31.64;39.33;101652.50;5049565;28;20036;-74
2023/06/25 12:24:35;;;;;;;6.47;2.97;;;;;;;31.69;38.29;101652.75;5050164;28;20028;-74
2023/06/25 12:27:21;;;;;;;3.33;2.80;;;;;;;31.68;37.99;101651.06;5049771;28;20048;-73
2023/06/25 12:30:08;;;;;;;4.70;3.22;;;;;;;31.72;37.60;101644.19;5051203;28;20048;-73
2023/06/25 12:32:54;;;;;;;3.78;3.22;;;;;;;31.63;38.04;101650.81;5051190;28;20153;-74
2023/06/25 12:35:40;;;;;;;3.40;2.97;;;;;;;31.59;38.22;101647.63;5048447;28;20049;-74
2023/06/25 12:38:26;;;;;;;3.92;3.00;;;;;;;31.51;38.74;101637.63;5050886;28;20052;-74
2023/06/25 12:41:12;;;;;;;3.40;2.80;;;;;;;31.47;39.08;101628.09;5049750;28;20048;-75
2023/06/25 12:43:58;;;;;;;2.95;2.58;;;;;;;31.61;39.75;101634.59;5049095;28;20079;-74
2023/06/25 12:46:44;;;;;;;3.60;2.85;;;;;;;31.81;38.78;101623.03;5067412;28;20110;-73